BAW7CP EGLL-KORD
Flight info
| Callsign | BAW7CP |
|---|---|
| Flight time | N/A |
| Altitude | 36000 |
| Route | ULTIB T420 TNT UL28 PENIL DCT DEJEM DCT OZRAT DCT WETFI DCT REVNU DCT ETARI/M081F380 DCT 56N020W 5630N03000W 5730N04000W 5830N05000W DCT AVUTI/N0476F380 N852B ALSOP DCT TEALS/N0484F400 DCT VANSI DCT STAFE N890B SSM WYNDE3 |
| Aircraft | B772/H-SDE2E3FGHIJ5LORVWXY/LB1D1 |
Departure
| Time | 2026-05-06 20:12 |
|---|---|
| Airport | London Heathrow Airport (EGLL) |
Arrival
| Time | N/A |
|---|---|
| Airport | Chicago O'Hare International Airport (KORD) |
| Time | Latitude | Longitude | Altitude | Speed | Heading |
|---|---|---|---|---|---|
| 2026-05-06 19:34 | 51.47116 | -0.48238 | 95 ft | 0 kts | 89° |
| 2026-05-06 19:59 | 51.47116 | -0.48276 | 93 ft | 4 kts | 90° |
| 2026-05-06 19:59 | 51.47117 | -0.48311 | 91 ft | 4 kts | 105° |
| 2026-05-06 19:59 | 51.47130 | -0.48344 | 91 ft | 4 kts | 150° |
| 2026-05-06 20:00 | 51.47154 | -0.48358 | 91 ft | 4 kts | 176° |
| 2026-05-06 20:00 | 51.47180 | -0.48359 | 89 ft | 4 kts | 180° |
| 2026-05-06 20:00 | 51.47200 | -0.48359 | 89 ft | 0 kts | 180° |
| 2026-05-06 20:05 | 51.47188 | -0.48358 | 92 ft | 8 kts | 178° |
| 2026-05-06 20:06 | 51.47107 | -0.48356 | 92 ft | 10 kts | 179° |
| 2026-05-06 20:06 | 51.47061 | -0.48392 | 94 ft | 8 kts | 243° |
| 2026-05-06 20:06 | 51.47037 | -0.48468 | 93 ft | 8 kts | 212° |
| 2026-05-06 20:06 | 51.46979 | -0.48474 | 93 ft | 10 kts | 177° |
| 2026-05-06 20:07 | 51.46902 | -0.48470 | 92 ft | 12 kts | 179° |
| 2026-05-06 20:07 | 51.46844 | -0.48470 | 92 ft | 3 kts | 179° |
| 2026-05-06 20:07 | 51.46842 | -0.48470 | 92 ft | 0 kts | 179° |
| 2026-05-06 20:10 | 51.46820 | -0.48470 | 91 ft | 9 kts | 180° |
| 2026-05-06 20:10 | 51.46725 | -0.48469 | 89 ft | 15 kts | 179° |
| 2026-05-06 20:10 | 51.46620 | -0.48468 | 93 ft | 15 kts | 180° |
| 2026-05-06 20:10 | 51.46524 | -0.48469 | 93 ft | 11 kts | 180° |
| 2026-05-06 20:11 | 51.46482 | -0.48427 | 95 ft | 7 kts | 105° |
| 2026-05-06 20:11 | 51.46479 | -0.48293 | 92 ft | 27 kts | 89° |
| 2026-05-06 20:11 | 51.46482 | -0.47612 | 88 ft | 96 kts | 90° |
| 2026-05-06 20:11 | 51.46485 | -0.46208 | 93 ft | 154 kts | 90° |
| 2026-05-06 20:12 | 51.46507 | -0.44336 | 459 ft | 172 kts | 86° |
| 2026-05-06 20:12 | 51.46542 | -0.42428 | 1246 ft | 171 kts | 79° |
| 2026-05-06 20:12 | 51.46963 | -0.40688 | 1941 ft | 167 kts | 58° |
| 2026-05-06 20:12 | 51.47693 | -0.39057 | 2153 ft | 192 kts | 51° |
| 2026-05-06 20:13 | 51.48581 | -0.37324 | 2305 ft | 216 kts | 50° |
| 2026-05-06 20:13 | 51.49592 | -0.35386 | 2584 ft | 234 kts | 50° |
| 2026-05-06 20:13 | 51.50662 | -0.33337 | 3095 ft | 244 kts | 50° |
| 2026-05-06 20:13 | 51.51757 | -0.31240 | 3694 ft | 246 kts | 50° |
| 2026-05-06 20:14 | 51.52608 | -0.28879 | 4283 ft | 245 kts | 71° |
| 2026-05-06 20:14 | 51.53091 | -0.26266 | 4890 ft | 244 kts | 71° |
| 2026-05-06 20:14 | 51.53641 | -0.23632 | 5312 ft | 255 kts | 69° |
| 2026-05-06 20:14 | 51.54243 | -0.20871 | 5467 ft | 265 kts | 66° |
| 2026-05-06 20:15 | 51.55319 | -0.18534 | 5555 ft | 263 kts | 33° |
| 2026-05-06 20:15 | 51.57031 | -0.17672 | 5756 ft | 261 kts | 357° |
| 2026-05-06 20:15 | 51.58725 | -0.18599 | 5882 ft | 260 kts | 322° |
| 2026-05-06 20:15 | 51.59994 | -0.20606 | 5986 ft | 261 kts | 315° |
| 2026-05-06 20:16 | 51.61366 | -0.22564 | 5997 ft | 267 kts | 323° |
| 2026-05-06 20:16 | 51.62873 | -0.24296 | 5998 ft | 264 kts | 324° |
| 2026-05-06 20:16 | 51.64367 | -0.25998 | 5995 ft | 262 kts | 326° |
| 2026-05-06 20:16 | 51.65887 | -0.27612 | 5999 ft | 262 kts | 327° |
| 2026-05-06 20:17 | 51.67435 | -0.29184 | 6006 ft | 263 kts | 328° |
| 2026-05-06 20:17 | 51.69003 | -0.30726 | 6002 ft | 264 kts | 329° |
| 2026-05-06 20:17 | 51.70578 | -0.32256 | 6004 ft | 263 kts | 329° |
| 2026-05-06 20:17 | 51.72146 | -0.33769 | 5993 ft | 262 kts | 329° |
| 2026-05-06 20:18 | 51.73710 | -0.35275 | 6002 ft | 261 kts | 329° |
| 2026-05-06 20:18 | 51.75277 | -0.36780 | 5998 ft | 262 kts | 329° |
| 2026-05-06 20:18 | 51.76842 | -0.38284 | 6009 ft | 262 kts | 329° |
| 2026-05-06 20:18 | 51.78407 | -0.39788 | 5969 ft | 262 kts | 329° |
| 2026-05-06 20:19 | 51.79977 | -0.41298 | 5978 ft | 262 kts | 329° |
| 2026-05-06 20:19 | 51.81538 | -0.42808 | 5982 ft | 260 kts | 329° |
| 2026-05-06 20:19 | 51.83069 | -0.44300 | 5968 ft | 255 kts | 329° |
| 2026-05-06 20:19 | 51.84577 | -0.45772 | 5971 ft | 254 kts | 328° |
| 2026-05-06 20:20 | 51.86085 | -0.47246 | 5976 ft | 259 kts | 329° |
| 2026-05-06 20:20 | 51.87636 | -0.48768 | 5985 ft | 259 kts | 328° |
| 2026-05-06 20:20 | 51.89172 | -0.50271 | 5975 ft | 257 kts | 329° |
| 2026-05-06 20:20 | 51.90699 | -0.51764 | 5974 ft | 254 kts | 328° |
| 2026-05-06 20:21 | 51.92197 | -0.53235 | 5965 ft | 251 kts | 329° |
| 2026-05-06 20:21 | 51.93709 | -0.54713 | 5978 ft | 257 kts | 329° |
| 2026-05-06 20:21 | 51.95244 | -0.56216 | 5977 ft | 259 kts | 329° |
| 2026-05-06 20:21 | 51.96794 | -0.57727 | 5987 ft | 258 kts | 329° |
| 2026-05-06 20:22 | 51.98330 | -0.59225 | 5988 ft | 257 kts | 329° |
| 2026-05-06 20:22 | 51.99860 | -0.60717 | 5979 ft | 256 kts | 329° |
| 2026-05-06 20:22 | 52.01360 | -0.62183 | 5976 ft | 254 kts | 329° |
| 2026-05-06 20:22 | 52.02874 | -0.63663 | 5982 ft | 253 kts | 329° |